CheckWX is a tool to help pilots better visualize weather data.  It is not intended as a substitute for an official pre-flight weather briefing.

09:33:32 UTC

KITH TAF
Ithaca Tompkins Regional Airport
Ithaca, New York, USA
KITH 180528Z 1806/1906 00000KT P6SM BKN035 FM180900 00000KT P6SM OVC025 TEMPO 1811/1815 5SM -SHRA BR BKN015 FM181600 VRB03KT P6SM OVC035

Jun-18@
06:00 UTC

Jun-18 @ 06:00 UTC

Jun-18@
09:00 UTC

Jun-18 @ 09:00 UTC

KITH 180528Z 1806/1906 00000KT P6SM BKN035

Expired

Cloud Levels
  • Broken at 3,500' AGL

Jun-18@
09:00 UTC

Jun-18 @ 09:00 UTC

Jun-18@
16:00 UTC

Jun-18 @ 16:00 UTC

FM180900 00000KT P6SM OVC025

From

From Standard forecast or significant change

Cloud Levels
  • Overcast at 2,500' AGL

Jun-18@
11:00 UTC

Jun-18 @ 11:00 UTC

Jun-18@
15:00 UTC

Jun-18 @ 15:00 UTC

TEMPO 1811/1815 5SM -SHRA BR BKN015

Temporary

Temporary Changes expected for less than half the time period

Conditions
Light Rain, Mist
Cloud Levels
  • Broken at 1,500' AGL

Jun-18@
16:00 UTC

Jun-18 @ 16:00 UTC

Jun-19@
06:00 UTC

Jun-19 @ 06:00 UTC

FM181600 VRB03KT P6SM OVC035

From

From Standard forecast or significant change

Wind
  • Variable at 3 KTS
Cloud Levels
  • Overcast at 3,500' AGL